SGCO/CIO METAR and TAF weather

Enter ICAO airport designator
Station Type Date Time Source
SGCO METAR 2021/09/27 18:00 UTC NOAA

SGCO 271800Z 36012KT 5000 HZ NSC 37/17 Q1010


Station Type Date Time Source
SGCO Decoded METAR 2021/09/27 18:00 UTC NOAA

Concepcion, Paraguay (SGCO) 23-25S 057-18W 74M
Sep 27, 2021 - 02:00 PM EDT / 2021.09.27 1800 UTC
Wind: from the N (360 degrees) at 14 MPH (12 KT):0
Visibility: 3 mile(s):0
Weather: haze
Temperature: 98 F (37 C)
Heat index: 99.0 F (37.2 C):1
Dew Point: 62 F (17 C)
Relative Humidity: 30%
Pressure (altimeter): 29.83 in. Hg (1010 hPa)
ob: SGCO 271800Z 36012KT 5000 HZ NSC 37/17 Q1010
cycle: 18

Station Type Date Time Source
SGCO TAF 2021/09/28 06:00 UTC NOAA

TAF SGCO 280406Z 2806/2906 0906KT 6000 NSC TX41/2819Z TN24/2810Z
BECMG 2812/2815 36015G20KT CAVOK
BECMG 2822/2900 18010KT 9999 BKN027

Example: see airport list